sensor_id;sensor_type;location;lat;lon;timestamp;P1;durP1;ratioP1;P2;durP2;ratioP2
71253;SDS011;59019;47.638;18.966;2023-07-29T00:02:00;6.47;;;2.87;;
71253;SDS011;59019;47.638;18.966;2023-07-29T00:04:25;6.53;;;2.90;;
71253;SDS011;59019;47.638;18.966;2023-07-29T00:06:51;6.40;;;2.83;;
71253;SDS011;59019;47.638;18.966;2023-07-29T00:09:16;5.63;;;2.70;;
71253;SDS011;59019;47.638;18.966;2023-07-29T00:11:42;6.27;;;2.57;;
71253;SDS011;59019;47.638;18.966;2023-07-29T00:14:07;6.47;;;2.77;;
71253;SDS011;59019;47.638;18.966;2023-07-29T00:16:33;6.40;;;2.30;;
71253;SDS011;59019;47.638;18.966;2023-07-29T00:18:58;6.10;;;2.30;;
71253;SDS011;59019;47.638;18.966;2023-07-29T00:21:24;6.53;;;2.40;;
71253;SDS011;59019;47.638;18.966;2023-07-29T00:23:49;5.67;;;2.30;;
71253;SDS011;59019;47.638;18.966;2023-07-29T00:26:15;8.02;;;2.30;;
71253;SDS011;59019;47.638;18.966;2023-07-29T00:28:40;8.85;;;3.08;;
71253;SDS011;59019;47.638;18.966;2023-07-29T00:31:06;6.73;;;2.80;;
71253;SDS011;59019;47.638;18.966;2023-07-29T00:33:31;6.23;;;2.80;;
71253;SDS011;59019;47.638;18.966;2023-07-29T00:35:57;6.37;;;2.50;;
71253;SDS011;59019;47.638;18.966;2023-07-29T00:38:26;5.40;;;2.65;;
71253;SDS011;59019;47.638;18.966;2023-07-29T00:40:52;5.65;;;2.55;;
71253;SDS011;59019;47.638;18.966;2023-07-29T00:43:17;5.73;;;2.53;;
71253;SDS011;59019;47.638;18.966;2023-07-29T00:45:43;5.50;;;2.60;;
71253;SDS011;59019;47.638;18.966;2023-07-29T00:48:12;7.95;;;2.40;;
71253;SDS011;59019;47.638;18.966;2023-07-29T00:50:37;4.97;;;2.30;;
71253;SDS011;59019;47.638;18.966;2023-07-29T00:53:03;7.90;;;2.50;;
71253;SDS011;59019;47.638;18.966;2023-07-29T00:55:29;5.93;;;2.37;;
71253;SDS011;59019;47.638;18.966;2023-07-29T00:57:54;5.90;;;2.30;;
71253;SDS011;59019;47.638;18.966;2023-07-29T01:00:20;4.93;;;2.30;;
71253;SDS011;59019;47.638;18.966;2023-07-29T01:02:47;6.07;;;2.40;;
71253;SDS011;59019;47.638;18.966;2023-07-29T01:05:13;5.32;;;2.33;;
71253;SDS011;59019;47.638;18.966;2023-07-29T01:07:58;5.68;;;2.30;;
71253;SDS011;59019;47.638;18.966;2023-07-29T01:13:31;6.18;;;2.50;;
71253;SDS011;59019;47.638;18.966;2023-07-29T01:16:04;7.60;;;2.70;;
71253;SDS011;59019;47.638;18.966;2023-07-29T01:18:40;7.53;;;2.67;;
71253;SDS011;59019;47.638;18.966;2023-07-29T01:21:08;9.73;;;2.88;;
71253;SDS011;59019;47.638;18.966;2023-07-29T01:23:35;6.97;;;2.77;;
71253;SDS011;59019;47.638;18.966;2023-07-29T01:26:01;7.13;;;2.65;;
71253;SDS011;59019;47.638;18.966;2023-07-29T01:28:27;6.60;;;2.50;;
71253;SDS011;59019;47.638;18.966;2023-07-29T01:31:06;7.60;;;2.60;;
71253;SDS011;59019;47.638;18.966;2023-07-29T01:33:39;6.32;;;2.65;;
71253;SDS011;59019;47.638;18.966;2023-07-29T01:36:10;5.88;;;2.38;;
71253;SDS011;59019;47.638;18.966;2023-07-29T01:38:40;6.10;;;2.38;;
71253;SDS011;59019;47.638;18.966;2023-07-29T01:41:07;7.28;;;2.42;;
71253;SDS011;59019;47.638;18.966;2023-07-29T01:43:33;6.15;;;2.90;;
71253;SDS011;59019;47.638;18.966;2023-07-29T01:46:04;6.97;;;2.50;;
71253;SDS011;59019;47.638;18.966;2023-07-29T01:48:30;5.17;;;2.33;;
71253;SDS011;59019;47.638;18.966;2023-07-29T01:50:56;6.47;;;2.63;;
71253;SDS011;59019;47.638;18.966;2023-07-29T01:53:22;6.23;;;2.30;;
71253;SDS011;59019;47.638;18.966;2023-07-29T01:55:48;7.37;;;2.60;;
71253;SDS011;59019;47.638;18.966;2023-07-29T01:58:13;5.97;;;2.50;;
71253;SDS011;59019;47.638;18.966;2023-07-29T02:00:39;7.25;;;2.63;;
71253;SDS011;59019;47.638;18.966;2023-07-29T02:03:05;7.00;;;2.50;;
71253;SDS011;59019;47.638;18.966;2023-07-29T02:05:30;6.93;;;2.70;;
71253;SDS011;59019;47.638;18.966;2023-07-29T02:07:56;6.25;;;2.55;;
71253;SDS011;59019;47.638;18.966;2023-07-29T02:10:21;5.73;;;2.30;;
71253;SDS011;59019;47.638;18.966;2023-07-29T02:12:47;7.27;;;2.57;;
71253;SDS011;59019;47.638;18.966;2023-07-29T02:15:12;6.40;;;2.50;;
71253;SDS011;59019;47.638;18.966;2023-07-29T02:17:39;7.40;;;2.50;;
71253;SDS011;59019;47.638;18.966;2023-07-29T02:20:07;6.32;;;2.28;;
71253;SDS011;59019;47.638;18.966;2023-07-29T02:22:33;6.18;;;2.50;;
71253;SDS011;59019;47.638;18.966;2023-07-29T02:24:59;5.60;;;2.58;;
71253;SDS011;59019;47.638;18.966;2023-07-29T02:27:26;6.88;;;2.60;;
71253;SDS011;59019;47.638;18.966;2023-07-29T02:29:52;7.22;;;2.80;;
71253;SDS011;59019;47.638;18.966;2023-07-29T02:32:18;5.80;;;2.70;;
71253;SDS011;59019;47.638;18.966;2023-07-29T02:34:45;5.88;;;2.50;;
71253;SDS011;59019;47.638;18.966;2023-07-29T02:37:10;7.37;;;2.50;;
71253;SDS011;59019;47.638;18.966;2023-07-29T02:39:36;7.40;;;2.60;;
71253;SDS011;59019;47.638;18.966;2023-07-29T02:42:02;6.90;;;2.50;;
71253;SDS011;59019;47.638;18.966;2023-07-29T02:44:28;6.07;;;2.58;;
71253;SDS011;59019;47.638;18.966;2023-07-29T02:46:53;6.27;;;2.50;;
71253;SDS011;59019;47.638;18.966;2023-07-29T02:49:21;5.47;;;2.70;;
71253;SDS011;59019;47.638;18.966;2023-07-29T02:51:46;6.55;;;2.50;;
71253;SDS011;59019;47.638;18.966;2023-07-29T02:54:12;5.70;;;2.60;;
71253;SDS011;59019;47.638;18.966;2023-07-29T02:56:37;7.38;;;2.95;;
71253;SDS011;59019;47.638;18.966;2023-07-29T02:59:03;7.03;;;2.85;;
71253;SDS011;59019;47.638;18.966;2023-07-29T03:01:29;6.83;;;2.83;;
71253;SDS011;59019;47.638;18.966;2023-07-29T03:03:54;5.97;;;2.50;;
71253;SDS011;59019;47.638;18.966;2023-07-29T03:06:20;5.90;;;2.70;;
71253;SDS011;59019;47.638;18.966;2023-07-29T03:08:45;6.33;;;2.70;;
71253;SDS011;59019;47.638;18.966;2023-07-29T03:11:14;5.90;;;2.73;;
71253;SDS011;59019;47.638;18.966;2023-07-29T03:13:41;6.35;;;2.55;;
71253;SDS011;59019;47.638;18.966;2023-07-29T03:16:12;6.13;;;2.50;;
71253;SDS011;59019;47.638;18.966;2023-07-29T03:18:39;5.32;;;2.78;;
71253;SDS011;59019;47.638;18.966;2023-07-29T03:21:06;7.88;;;2.80;;
71253;SDS011;59019;47.638;18.966;2023-07-29T03:23:32;7.53;;;2.90;;
71253;SDS011;59019;47.638;18.966;2023-07-29T03:25:58;6.90;;;3.00;;
71253;SDS011;59019;47.638;18.966;2023-07-29T03:28:26;6.88;;;2.80;;
71253;SDS011;59019;47.638;18.966;2023-07-29T03:30:53;6.75;;;3.08;;
71253;SDS011;59019;47.638;18.966;2023-07-29T03:33:19;6.80;;;2.80;;
71253;SDS011;59019;47.638;18.966;2023-07-29T03:35:44;8.43;;;2.93;;
71253;SDS011;59019;47.638;18.966;2023-07-29T03:38:10;5.50;;;2.40;;
71253;SDS011;59019;47.638;18.966;2023-07-29T03:40:39;6.07;;;2.67;;
71253;SDS011;59019;47.638;18.966;2023-07-29T03:43:06;6.35;;;2.70;;
71253;SDS011;59019;47.638;18.966;2023-07-29T03:45:32;7.05;;;2.90;;
71253;SDS011;59019;47.638;18.966;2023-07-29T03:47:59;7.60;;;2.80;;
71253;SDS011;59019;47.638;18.966;2023-07-29T03:50:26;6.50;;;2.80;;
71253;SDS011;59019;47.638;18.966;2023-07-29T03:52:51;5.47;;;2.88;;
71253;SDS011;59019;47.638;18.966;2023-07-29T03:55:17;8.77;;;3.87;;
71253;SDS011;59019;47.638;18.966;2023-07-29T03:57:42;7.90;;;3.20;;
71253;SDS011;59019;47.638;18.966;2023-07-29T04:00:08;8.20;;;3.10;;
71253;SDS011;59019;47.638;18.966;2023-07-29T04:02:36;5.53;;;2.42;;
71253;SDS011;59019;47.638;18.966;2023-07-29T04:05:05;5.07;;;2.80;;
71253;SDS011;59019;47.638;18.966;2023-07-29T04:07:33;7.50;;;2.93;;
71253;SDS011;59019;47.638;18.966;2023-07-29T04:09:59;5.37;;;2.80;;
71253;SDS011;59019;47.638;18.966;2023-07-29T04:12:26;6.20;;;2.85;;
71253;SDS011;59019;47.638;18.966;2023-07-29T04:14:51;7.43;;;2.80;;
71253;SDS011;59019;47.638;18.966;2023-07-29T04:17:17;5.87;;;2.90;;
71253;SDS011;59019;47.638;18.966;2023-07-29T04:19:42;5.20;;;2.70;;
71253;SDS011;59019;47.638;18.966;2023-07-29T04:22:08;5.73;;;2.77;;
71253;SDS011;59019;47.638;18.966;2023-07-29T04:24:33;5.67;;;2.90;;
71253;SDS011;59019;47.638;18.966;2023-07-29T04:26:59;6.93;;;2.80;;
71253;SDS011;59019;47.638;18.966;2023-07-29T04:29:25;7.45;;;2.83;;
71253;SDS011;59019;47.638;18.966;2023-07-29T04:31:50;5.33;;;2.67;;
71253;SDS011;59019;47.638;18.966;2023-07-29T04:34:17;5.38;;;2.60;;
71253;SDS011;59019;47.638;18.966;2023-07-29T04:36:43;5.15;;;2.60;;
71253;SDS011;59019;47.638;18.966;2023-07-29T04:39:09;6.00;;;2.57;;
71253;SDS011;59019;47.638;18.966;2023-07-29T04:41:35;5.63;;;2.70;;
71253;SDS011;59019;47.638;18.966;2023-07-29T04:44:00;6.78;;;2.70;;
71253;SDS011;59019;47.638;18.966;2023-07-29T04:46:26;7.93;;;2.60;;
71253;SDS011;59019;47.638;18.966;2023-07-29T04:48:51;6.33;;;2.87;;
71253;SDS011;59019;47.638;18.966;2023-07-29T04:51:16;6.47;;;2.33;;
71253;SDS011;59019;47.638;18.966;2023-07-29T04:53:42;5.77;;;2.50;;
71253;SDS011;59019;47.638;18.966;2023-07-29T04:56:07;5.13;;;2.47;;
71253;SDS011;59019;47.638;18.966;2023-07-29T04:58:33;7.40;;;3.13;;
71253;SDS011;59019;47.638;18.966;2023-07-29T05:01:00;6.10;;;2.67;;
71253;SDS011;59019;47.638;18.966;2023-07-29T05:03:29;5.60;;;2.70;;
71253;SDS011;59019;47.638;18.966;2023-07-29T05:05:55;6.10;;;2.60;;
71253;SDS011;59019;47.638;18.966;2023-07-29T05:08:22;5.45;;;2.40;;
71253;SDS011;59019;47.638;18.966;2023-07-29T05:10:51;5.00;;;2.53;;
71253;SDS011;59019;47.638;18.966;2023-07-29T05:13:17;4.97;;;2.53;;
71253;SDS011;59019;47.638;18.966;2023-07-29T05:15:44;4.78;;;2.40;;
71253;SDS011;59019;47.638;18.966;2023-07-29T05:18:11;5.53;;;2.55;;
71253;SDS011;59019;47.638;18.966;2023-07-29T05:20:36;4.73;;;2.67;;
71253;SDS011;59019;47.638;18.966;2023-07-29T05:23:02;5.27;;;2.40;;
71253;SDS011;59019;47.638;18.966;2023-07-29T05:25:28;5.47;;;2.70;;
71253;SDS011;59019;47.638;18.966;2023-07-29T05:27:54;6.20;;;2.75;;
71253;SDS011;59019;47.638;18.966;2023-07-29T05:30:19;5.03;;;2.63;;
71253;SDS011;59019;47.638;18.966;2023-07-29T05:32:45;4.90;;;2.53;;
71253;SDS011;59019;47.638;18.966;2023-07-29T05:35:10;5.30;;;2.40;;
71253;SDS011;59019;47.638;18.966;2023-07-29T05:37:38;6.10;;;2.65;;
71253;SDS011;59019;47.638;18.966;2023-07-29T05:40:05;5.78;;;2.60;;
71253;SDS011;59019;47.638;18.966;2023-07-29T05:42:31;4.63;;;2.40;;
71253;SDS011;59019;47.638;18.966;2023-07-29T05:44:57;5.65;;;2.53;;
71253;SDS011;59019;47.638;18.966;2023-07-29T05:47:23;4.87;;;2.70;;
71253;SDS011;59019;47.638;18.966;2023-07-29T05:49:48;5.10;;;2.60;;
71253;SDS011;59019;47.638;18.966;2023-07-29T05:52:14;5.50;;;2.70;;
71253;SDS011;59019;47.638;18.966;2023-07-29T05:54:40;4.55;;;2.50;;
71253;SDS011;59019;47.638;18.966;2023-07-29T05:57:07;7.27;;;2.67;;
71253;SDS011;59019;47.638;18.966;2023-07-29T05:59:34;5.05;;;2.70;;
71253;SDS011;59019;47.638;18.966;2023-07-29T06:02:00;5.43;;;2.70;;
71253;SDS011;59019;47.638;18.966;2023-07-29T06:04:25;6.17;;;2.90;;
71253;SDS011;59019;47.638;18.966;2023-07-29T06:06:50;5.43;;;2.70;;
71253;SDS011;59019;47.638;18.966;2023-07-29T06:09:16;6.90;;;2.80;;
71253;SDS011;59019;47.638;18.966;2023-07-29T06:11:41;6.65;;;3.00;;
71253;SDS011;59019;47.638;18.966;2023-07-29T06:14:07;5.33;;;2.80;;
71253;SDS011;59019;47.638;18.966;2023-07-29T06:16:32;5.93;;;2.70;;
71253;SDS011;59019;47.638;18.966;2023-07-29T06:18:58;5.93;;;2.77;;
71253;SDS011;59019;47.638;18.966;2023-07-29T06:21:23;5.97;;;2.70;;
71253;SDS011;59019;47.638;18.966;2023-07-29T06:23:49;5.07;;;2.72;;
71253;SDS011;59019;47.638;18.966;2023-07-29T06:26:14;4.70;;;2.80;;
71253;SDS011;59019;47.638;18.966;2023-07-29T06:28:40;6.37;;;2.80;;
71253;SDS011;59019;47.638;18.966;2023-07-29T06:31:05;6.03;;;2.80;;
71253;SDS011;59019;47.638;18.966;2023-07-29T06:33:31;5.03;;;2.80;;
71253;SDS011;59019;47.638;18.966;2023-07-29T06:35:57;6.20;;;3.00;;
71253;SDS011;59019;47.638;18.966;2023-07-29T06:38:22;5.60;;;2.60;;
71253;SDS011;59019;47.638;18.966;2023-07-29T06:40:48;6.10;;;2.40;;
71253;SDS011;59019;47.638;18.966;2023-07-29T06:43:14;5.07;;;2.53;;
71253;SDS011;59019;47.638;18.966;2023-07-29T06:45:39;5.03;;;2.57;;
71253;SDS011;59019;47.638;18.966;2023-07-29T06:48:05;5.72;;;2.67;;
71253;SDS011;59019;47.638;18.966;2023-07-29T06:50:30;5.50;;;2.60;;
71253;SDS011;59019;47.638;18.966;2023-07-29T06:52:56;5.20;;;2.70;;
71253;SDS011;59019;47.638;18.966;2023-07-29T06:55:21;6.20;;;2.90;;
71253;SDS011;59019;47.638;18.966;2023-07-29T06:57:47;5.20;;;2.40;;
71253;SDS011;59019;47.638;18.966;2023-07-29T07:00:12;4.88;;;2.60;;
71253;SDS011;59019;47.638;18.966;2023-07-29T07:02:38;5.73;;;2.80;;
71253;SDS011;59019;47.638;18.966;2023-07-29T07:05:03;4.40;;;2.40;;
71253;SDS011;59019;47.638;18.966;2023-07-29T07:07:29;5.22;;;2.70;;
71253;SDS011;59019;47.638;18.966;2023-07-29T07:09:55;5.25;;;2.50;;
71253;SDS011;59019;47.638;18.966;2023-07-29T07:12:21;4.40;;;2.40;;
71253;SDS011;59019;47.638;18.966;2023-07-29T07:14:47;4.15;;;2.20;;
71253;SDS011;59019;47.638;18.966;2023-07-29T07:17:13;4.40;;;2.40;;
71253;SDS011;59019;47.638;18.966;2023-07-29T07:19:38;4.67;;;2.40;;
71253;SDS011;59019;47.638;18.966;2023-07-29T07:22:04;5.13;;;2.27;;
71253;SDS011;59019;47.638;18.966;2023-07-29T07:24:29;5.68;;;2.83;;
71253;SDS011;59019;47.638;18.966;2023-07-29T07:26:54;4.37;;;2.33;;
71253;SDS011;59019;47.638;18.966;2023-07-29T07:29:20;4.83;;;2.50;;
71253;SDS011;59019;47.638;18.966;2023-07-29T07:31:49;6.30;;;2.40;;
71253;SDS011;59019;47.638;18.966;2023-07-29T07:34:17;5.17;;;2.43;;
71253;SDS011;59019;47.638;18.966;2023-07-29T07:36:43;4.82;;;2.45;;
71253;SDS011;59019;47.638;18.966;2023-07-29T07:39:08;4.47;;;2.43;;
71253;SDS011;59019;47.638;18.966;2023-07-29T07:41:34;4.50;;;2.40;;
71253;SDS011;59019;47.638;18.966;2023-07-29T07:43:59;7.20;;;2.50;;
71253;SDS011;59019;47.638;18.966;2023-07-29T07:46:25;4.20;;;2.55;;
71253;SDS011;59019;47.638;18.966;2023-07-29T07:48:50;5.10;;;2.50;;
71253;SDS011;59019;47.638;18.966;2023-07-29T07:51:15;4.17;;;2.23;;
71253;SDS011;59019;47.638;18.966;2023-07-29T07:53:41;4.20;;;2.37;;
71253;SDS011;59019;47.638;18.966;2023-07-29T07:56:07;4.25;;;2.40;;
71253;SDS011;59019;47.638;18.966;2023-07-29T07:58:33;4.20;;;2.27;;
71253;SDS011;59019;47.638;18.966;2023-07-29T08:01:02;4.57;;;2.50;;
71253;SDS011;59019;47.638;18.966;2023-07-29T08:03:32;5.10;;;2.20;;
71253;SDS011;59019;47.638;18.966;2023-07-29T08:05:57;5.85;;;2.38;;
71253;SDS011;59019;47.638;18.966;2023-07-29T08:08:23;4.45;;;2.10;;
71253;SDS011;59019;47.638;18.966;2023-07-29T08:10:50;4.18;;;2.00;;
71253;SDS011;59019;47.638;18.966;2023-07-29T08:13:15;4.90;;;2.00;;
71253;SDS011;59019;47.638;18.966;2023-07-29T08:15:41;4.10;;;2.20;;
71253;SDS011;59019;47.638;18.966;2023-07-29T08:18:06;3.60;;;1.90;;
71253;SDS011;59019;47.638;18.966;2023-07-29T08:20:32;5.25;;;2.00;;
71253;SDS011;59019;47.638;18.966;2023-07-29T08:22:57;4.40;;;1.98;;
71253;SDS011;59019;47.638;18.966;2023-07-29T08:25:23;4.20;;;2.13;;
71253;SDS011;59019;47.638;18.966;2023-07-29T08:27:48;3.80;;;2.03;;
71253;SDS011;59019;47.638;18.966;2023-07-29T08:30:14;3.97;;;2.00;;
71253;SDS011;59019;47.638;18.966;2023-07-29T08:32:41;4.47;;;2.03;;
71253;SDS011;59019;47.638;18.966;2023-07-29T08:35:07;4.90;;;1.95;;
71253;SDS011;59019;47.638;18.966;2023-07-29T08:37:33;3.80;;;2.00;;
71253;SDS011;59019;47.638;18.966;2023-07-29T08:39:58;4.75;;;2.20;;
71253;SDS011;59019;47.638;18.966;2023-07-29T08:42:26;3.73;;;2.00;;
71253;SDS011;59019;47.638;18.966;2023-07-29T08:44:56;3.73;;;1.80;;
71253;SDS011;59019;47.638;18.966;2023-07-29T08:47:22;3.55;;;1.70;;
71253;SDS011;59019;47.638;18.966;2023-07-29T08:49:48;3.30;;;1.67;;
71253;SDS011;59019;47.638;18.966;2023-07-29T08:52:17;3.72;;;1.80;;
71253;SDS011;59019;47.638;18.966;2023-07-29T08:54:43;3.55;;;1.73;;
71253;SDS011;59019;47.638;18.966;2023-07-29T08:57:09;3.63;;;1.80;;
71253;SDS011;59019;47.638;18.966;2023-07-29T08:59:35;3.70;;;1.75;;
71253;SDS011;59019;47.638;18.966;2023-07-29T09:02:01;3.53;;;1.60;;
71253;SDS011;59019;47.638;18.966;2023-07-29T09:04:26;3.70;;;1.58;;
71253;SDS011;59019;47.638;18.966;2023-07-29T09:06:53;3.65;;;1.75;;
71253;SDS011;59019;47.638;18.966;2023-07-29T09:09:21;3.35;;;1.70;;
71253;SDS011;59019;47.638;18.966;2023-07-29T09:11:47;3.57;;;1.63;;
71253;SDS011;59019;47.638;18.966;2023-07-29T09:14:13;3.78;;;1.70;;
71253;SDS011;59019;47.638;18.966;2023-07-29T09:16:39;3.75;;;1.55;;
71253;SDS011;59019;47.638;18.966;2023-07-29T09:19:04;3.20;;;1.63;;
71253;SDS011;59019;47.638;18.966;2023-07-29T09:21:31;3.65;;;1.42;;
71253;SDS011;59019;47.638;18.966;2023-07-29T09:23:57;3.20;;;1.40;;
71253;SDS011;59019;47.638;18.966;2023-07-29T09:26:28;3.22;;;1.50;;
71253;SDS011;59019;47.638;18.966;2023-07-29T09:28:54;4.73;;;1.50;;
71253;SDS011;59019;47.638;18.966;2023-07-29T09:31:22;3.40;;;1.60;;
71253;SDS011;59019;47.638;18.966;2023-07-29T09:33:48;3.70;;;1.60;;
71253;SDS011;59019;47.638;18.966;2023-07-29T09:36:14;3.30;;;1.60;;
71253;SDS011;59019;47.638;18.966;2023-07-29T09:38:40;3.33;;;1.57;;
71253;SDS011;59019;47.638;18.966;2023-07-29T09:41:05;3.17;;;1.60;;
71253;SDS011;59019;47.638;18.966;2023-07-29T09:43:31;3.47;;;1.50;;
71253;SDS011;59019;47.638;18.966;2023-07-29T09:46:02;3.60;;;1.60;;
71253;SDS011;59019;47.638;18.966;2023-07-29T09:48:32;3.90;;;1.75;;
71253;SDS011;59019;47.638;18.966;2023-07-29T09:50:59;3.25;;;1.60;;
71253;SDS011;59019;47.638;18.966;2023-07-29T09:53:24;3.50;;;1.80;;
71253;SDS011;59019;47.638;18.966;2023-07-29T09:55:50;3.33;;;1.73;;
71253;SDS011;59019;47.638;18.966;2023-07-29T09:58:26;5.68;;;1.80;;
71253;SDS011;59019;47.638;18.966;2023-07-29T10:00:52;3.10;;;1.40;;
71253;SDS011;59019;47.638;18.966;2023-07-29T10:03:18;3.90;;;1.80;;
71253;SDS011;59019;47.638;18.966;2023-07-29T10:05:46;3.10;;;1.50;;
71253;SDS011;59019;47.638;18.966;2023-07-29T10:08:12;3.72;;;1.70;;
71253;SDS011;59019;47.638;18.966;2023-07-29T10:10:40;3.38;;;1.58;;
71253;SDS011;59019;47.638;18.966;2023-07-29T10:13:07;3.20;;;1.50;;
71253;SDS011;59019;47.638;18.966;2023-07-29T10:15:32;4.10;;;1.70;;
71253;SDS011;59019;47.638;18.966;2023-07-29T10:17:58;3.60;;;1.80;;
71253;SDS011;59019;47.638;18.966;2023-07-29T10:20:24;3.70;;;1.90;;
71253;SDS011;59019;47.638;18.966;2023-07-29T10:22:50;3.70;;;1.70;;
71253;SDS011;59019;47.638;18.966;2023-07-29T10:25:22;3.72;;;1.80;;
71253;SDS011;59019;47.638;18.966;2023-07-29T10:27:57;3.40;;;1.85;;
71253;SDS011;59019;47.638;18.966;2023-07-29T10:30:29;4.03;;;1.70;;
71253;SDS011;59019;47.638;18.966;2023-07-29T10:32:57;4.80;;;1.95;;
71253;SDS011;59019;47.638;18.966;2023-07-29T10:35:24;7.28;;;1.70;;
71253;SDS011;59019;47.638;18.966;2023-07-29T10:37:53;4.40;;;1.95;;
71253;SDS011;59019;47.638;18.966;2023-07-29T10:40:20;3.83;;;1.70;;
71253;SDS011;59019;47.638;18.966;2023-07-29T10:43:01;3.40;;;1.60;;
71253;SDS011;59019;47.638;18.966;2023-07-29T10:45:40;3.28;;;1.60;;
71253;SDS011;59019;47.638;18.966;2023-07-29T10:48:11;3.92;;;1.85;;
71253;SDS011;59019;47.638;18.966;2023-07-29T10:50:37;4.60;;;1.90;;
71253;SDS011;59019;47.638;18.966;2023-07-29T10:53:03;3.20;;;1.60;;
71253;SDS011;59019;47.638;18.966;2023-07-29T10:55:33;3.90;;;1.67;;
71253;SDS011;59019;47.638;18.966;2023-07-29T10:58:13;4.30;;;1.70;;
71253;SDS011;59019;47.638;18.966;2023-07-29T11:00:44;3.58;;;1.70;;
71253;SDS011;59019;47.638;18.966;2023-07-29T11:03:11;3.97;;;1.83;;
71253;SDS011;59019;47.638;18.966;2023-07-29T11:05:45;3.38;;;1.70;;
71253;SDS011;59019;47.638;18.966;2023-07-29T11:08:21;3.67;;;1.60;;
71253;SDS011;59019;47.638;18.966;2023-07-29T11:13:26;3.33;;;1.52;;
71253;SDS011;59019;47.638;18.966;2023-07-29T11:15:53;3.27;;;1.70;;
71253;SDS011;59019;47.638;18.966;2023-07-29T11:18:19;3.28;;;1.70;;
71253;SDS011;59019;47.638;18.966;2023-07-29T11:20:46;4.15;;;1.70;;
71253;SDS011;59019;47.638;18.966;2023-07-29T11:23:12;4.90;;;2.00;;
71253;SDS011;59019;47.638;18.966;2023-07-29T11:25:38;4.07;;;1.70;;
71253;SDS011;59019;47.638;18.966;2023-07-29T11:28:04;3.67;;;1.87;;
71253;SDS011;59019;47.638;18.966;2023-07-29T11:30:29;3.58;;;1.67;;
71253;SDS011;59019;47.638;18.966;2023-07-29T11:32:56;4.00;;;1.80;;
71253;SDS011;59019;47.638;18.966;2023-07-29T11:35:23;3.50;;;1.90;;
71253;SDS011;59019;47.638;18.966;2023-07-29T11:37:54;3.35;;;1.80;;
71253;SDS011;59019;47.638;18.966;2023-07-29T11:40:23;3.58;;;1.80;;
71253;SDS011;59019;47.638;18.966;2023-07-29T11:42:50;3.20;;;1.65;;
71253;SDS011;59019;47.638;18.966;2023-07-29T11:45:17;3.40;;;1.75;;
71253;SDS011;59019;47.638;18.966;2023-07-29T11:47:44;3.47;;;1.70;;
71253;SDS011;59019;47.638;18.966;2023-07-29T11:50:11;4.00;;;1.70;;
71253;SDS011;59019;47.638;18.966;2023-07-29T11:52:41;3.10;;;1.50;;
71253;SDS011;59019;47.638;18.966;2023-07-29T11:55:08;3.85;;;1.70;;
71253;SDS011;59019;47.638;18.966;2023-07-29T11:57:35;3.40;;;1.50;;
71253;SDS011;59019;47.638;18.966;2023-07-29T12:00:02;3.47;;;1.60;;
71253;SDS011;59019;47.638;18.966;2023-07-29T12:02:29;3.50;;;1.80;;
71253;SDS011;59019;47.638;18.966;2023-07-29T12:04:55;4.13;;;1.80;;
71253;SDS011;59019;47.638;18.966;2023-07-29T12:07:22;3.60;;;1.83;;
71253;SDS011;59019;47.638;18.966;2023-07-29T12:09:48;4.67;;;1.77;;
71253;SDS011;59019;47.638;18.966;2023-07-29T12:12:15;6.70;;;1.70;;
71253;SDS011;59019;47.638;18.966;2023-07-29T12:14:43;3.30;;;1.60;;
71253;SDS011;59019;47.638;18.966;2023-07-29T12:17:10;3.83;;;1.73;;
71253;SDS011;59019;47.638;18.966;2023-07-29T12:19:39;3.50;;;1.80;;
71253;SDS011;59019;47.638;18.966;2023-07-29T12:22:06;3.75;;;1.70;;
71253;SDS011;59019;47.638;18.966;2023-07-29T12:24:33;3.90;;;1.75;;
71253;SDS011;59019;47.638;18.966;2023-07-29T12:27:01;4.15;;;1.70;;
71253;SDS011;59019;47.638;18.966;2023-07-29T12:29:27;4.50;;;1.90;;
71253;SDS011;59019;47.638;18.966;2023-07-29T12:31:57;3.35;;;1.60;;
71253;SDS011;59019;47.638;18.966;2023-07-29T12:34:30;3.47;;;1.70;;
71253;SDS011;59019;47.638;18.966;2023-07-29T12:36:57;3.42;;;1.80;;
71253;SDS011;59019;47.638;18.966;2023-07-29T12:39:24;4.30;;;1.70;;
71253;SDS011;59019;47.638;18.966;2023-07-29T12:41:57;3.50;;;1.70;;
71253;SDS011;59019;47.638;18.966;2023-07-29T12:44:29;3.58;;;1.80;;
71253;SDS011;59019;47.638;18.966;2023-07-29T12:46:56;3.80;;;1.70;;
71253;SDS011;59019;47.638;18.966;2023-07-29T12:49:21;3.58;;;1.90;;
71253;SDS011;59019;47.638;18.966;2023-07-29T12:51:47;3.43;;;1.80;;
71253;SDS011;59019;47.638;18.966;2023-07-29T12:54:13;3.90;;;2.00;;
71253;SDS011;59019;47.638;18.966;2023-07-29T12:56:39;3.63;;;1.90;;
71253;SDS011;59019;47.638;18.966;2023-07-29T12:59:05;3.97;;;2.10;;
71253;SDS011;59019;47.638;18.966;2023-07-29T13:01:30;3.60;;;1.85;;
71253;SDS011;59019;47.638;18.966;2023-07-29T13:03:56;3.83;;;2.07;;
71253;SDS011;59019;47.638;18.966;2023-07-29T13:06:22;4.15;;;2.00;;
71253;SDS011;59019;47.638;18.966;2023-07-29T13:08:47;4.20;;;2.10;;
71253;SDS011;59019;47.638;18.966;2023-07-29T13:11:13;3.60;;;1.90;;
71253;SDS011;59019;47.638;18.966;2023-07-29T13:13:39;4.50;;;2.13;;
71253;SDS011;59019;47.638;18.966;2023-07-29T13:16:05;4.47;;;2.00;;
71253;SDS011;59019;47.638;18.966;2023-07-29T13:18:31;4.03;;;2.07;;
71253;SDS011;59019;47.638;18.966;2023-07-29T13:20:57;5.28;;;2.30;;
71253;SDS011;59019;47.638;18.966;2023-07-29T13:23:22;4.70;;;2.10;;
71253;SDS011;59019;47.638;18.966;2023-07-29T13:25:49;17.60;;;2.80;;
71253;SDS011;59019;47.638;18.966;2023-07-29T13:28:15;3.67;;;1.80;;
71253;SDS011;59019;47.638;18.966;2023-07-29T13:30:41;6.03;;;2.20;;
71253;SDS011;59019;47.638;18.966;2023-07-29T13:33:07;4.05;;;1.90;;
71253;SDS011;59019;47.638;18.966;2023-07-29T13:35:33;3.87;;;2.00;;
71253;SDS011;59019;47.638;18.966;2023-07-29T13:37:59;3.70;;;2.20;;
71253;SDS011;59019;47.638;18.966;2023-07-29T13:40:25;3.90;;;2.00;;
71253;SDS011;59019;47.638;18.966;2023-07-29T13:42:50;4.07;;;1.93;;
71253;SDS011;59019;47.638;18.966;2023-07-29T13:45:17;4.03;;;1.90;;
71253;SDS011;59019;47.638;18.966;2023-07-29T13:47:43;4.22;;;1.70;;
71253;SDS011;59019;47.638;18.966;2023-07-29T13:50:08;4.10;;;2.13;;
71253;SDS011;59019;47.638;18.966;2023-07-29T13:52:35;3.80;;;1.93;;
71253;SDS011;59019;47.638;18.966;2023-07-29T13:55:01;4.10;;;1.88;;
71253;SDS011;59019;47.638;18.966;2023-07-29T13:57:27;4.95;;;2.03;;
71253;SDS011;59019;47.638;18.966;2023-07-29T13:59:52;3.60;;;1.80;;
71253;SDS011;59019;47.638;18.966;2023-07-29T14:02:18;4.40;;;2.10;;
71253;SDS011;59019;47.638;18.966;2023-07-29T14:04:43;4.20;;;2.03;;
71253;SDS011;59019;47.638;18.966;2023-07-29T14:07:09;4.57;;;1.90;;
71253;SDS011;59019;47.638;18.966;2023-07-29T14:09:34;4.93;;;2.10;;
71253;SDS011;59019;47.638;18.966;2023-07-29T14:12:00;3.73;;;1.90;;
71253;SDS011;59019;47.638;18.966;2023-07-29T14:14:25;3.70;;;1.83;;
71253;SDS011;59019;47.638;18.966;2023-07-29T14:16:50;4.27;;;1.87;;
71253;SDS011;59019;47.638;18.966;2023-07-29T14:19:16;4.00;;;2.00;;
71253;SDS011;59019;47.638;18.966;2023-07-29T14:21:42;4.80;;;2.10;;
71253;SDS011;59019;47.638;18.966;2023-07-29T14:24:07;3.60;;;1.90;;
71253;SDS011;59019;47.638;18.966;2023-07-29T14:26:35;4.28;;;1.90;;
71253;SDS011;59019;47.638;18.966;2023-07-29T14:29:01;3.95;;;1.98;;
71253;SDS011;59019;47.638;18.966;2023-07-29T14:31:26;4.10;;;2.13;;
71253;SDS011;59019;47.638;18.966;2023-07-29T14:33:52;4.87;;;2.43;;
71253;SDS011;59019;47.638;18.966;2023-07-29T14:36:17;4.50;;;2.17;;